Archival Weather

Salzburg

Salzburg, Austria (LOWS)

Report from: Thursday, September 21, 2023 11:20 PM CEST
Current time: Saturday, March 2, 2024 11:43 AM CET

Current weather – Weather history – Daily summaries
Weather forecast

Temperature19.0°C (66.2°F)
Dew point11.0°C (51.8°F)
Winds 11 kts (5.7 m/s, 12.7 mph) South-Southeast (150°)
Visibility6.2 mi. (10 km)
Clouds Sky clear
Altimeter29.56 in.Hg (1001 mB)
Relative humidity60 %
Density altitude1,070 ft. (326 m)
Remarks Fully automated report
No clouds detected
Flight conditions Visual Meteorological Conditions
Raw dataLOWS 212120Z AUTO 15011KT 9999 NCD 19/11 Q1001
An error has occurred. This application may no longer respond until reloaded. Reload 🗙